sensor_id;sensor_type;location;lat;lon;timestamp;pressure;altitude;pressure_sealevel;temperature;humidity
60654;BME280;46476;53.614;10.048;2022-08-19T00:00:50;100985.38;;;23.79;58.69
60654;BME280;46476;53.614;10.048;2022-08-19T00:03:18;100986.25;;;23.80;58.85
60654;BME280;46476;53.614;10.048;2022-08-19T00:05:50;100974.31;;;23.79;58.63
60654;BME280;46476;53.614;10.048;2022-08-19T00:08:53;100959.19;;;23.82;58.80
60654;BME280;46476;53.614;10.048;2022-08-19T00:11:35;100958.34;;;23.81;58.57
60654;BME280;46476;53.614;10.048;2022-08-19T00:14:07;100950.28;;;23.80;58.86
60654;BME280;46476;53.614;10.048;2022-08-19T00:16:34;100942.59;;;23.82;58.92
60654;BME280;46476;53.614;10.048;2022-08-19T00:19:40;100938.38;;;23.79;58.96
60654;BME280;46476;53.614;10.048;2022-08-19T00:22:34;100954.75;;;23.81;58.93
60654;BME280;46476;53.614;10.048;2022-08-19T00:25:00;100954.97;;;23.79;58.84
60654;BME280;46476;53.614;10.048;2022-08-19T00:30:25;100956.50;;;23.75;58.88
60654;BME280;46476;53.614;10.048;2022-08-19T00:32:53;100954.00;;;23.73;58.87
60654;BME280;46476;53.614;10.048;2022-08-19T00:35:23;100953.16;;;23.73;59.08
60654;BME280;46476;53.614;10.048;2022-08-19T00:37:50;100944.00;;;23.72;58.91
60654;BME280;46476;53.614;10.048;2022-08-19T00:40:17;100945.31;;;23.70;59.21
60654;BME280;46476;53.614;10.048;2022-08-19T00:42:43;100946.63;;;23.67;59.48
60654;BME280;46476;53.614;10.048;2022-08-19T00:45:13;100946.88;;;23.66;59.26
60654;BME280;46476;53.614;10.048;2022-08-19T00:47:39;100946.38;;;23.69;59.29
60654;BME280;46476;53.614;10.048;2022-08-19T00:50:05;100938.72;;;23.71;59.28
60654;BME280;46476;53.614;10.048;2022-08-19T00:52:35;100933.81;;;23.73;59.35
60654;BME280;46476;53.614;10.048;2022-08-19T00:55:06;100933.66;;;23.68;59.42
60654;BME280;46476;53.614;10.048;2022-08-19T00:57:38;100935.81;;;23.66;59.61
60654;BME280;46476;53.614;10.048;2022-08-19T01:00:09;100932.22;;;23.65;59.38
60654;BME280;46476;53.614;10.048;2022-08-19T01:02:37;100934.97;;;23.65;59.38
60654;BME280;46476;53.614;10.048;2022-08-19T01:05:06;100931.97;;;23.67;59.48
60654;BME280;46476;53.614;10.048;2022-08-19T01:07:34;100927.28;;;23.67;59.51
60654;BME280;46476;53.614;10.048;2022-08-19T01:10:00;100935.56;;;23.67;59.45
60654;BME280;46476;53.614;10.048;2022-08-19T01:12:25;100934.97;;;23.65;59.32
60654;BME280;46476;53.614;10.048;2022-08-19T01:14:51;100937.50;;;23.67;59.50
60654;BME280;46476;53.614;10.048;2022-08-19T01:17:17;100933.03;;;23.66;59.43
60654;BME280;46476;53.614;10.048;2022-08-19T01:19:59;100933.66;;;23.68;59.63
60654;BME280;46476;53.614;10.048;2022-08-19T01:23:29;100930.03;;;23.67;59.78
60654;BME280;46476;53.614;10.048;2022-08-19T01:26:20;100928.59;;;23.65;59.55
60654;BME280;46476;53.614;10.048;2022-08-19T01:28:55;100924.75;;;23.66;59.81
60654;BME280;46476;53.614;10.048;2022-08-19T01:31:38;100928.81;;;23.63;59.55
60654;BME280;46476;53.614;10.048;2022-08-19T01:47:44;100909.09;;;23.60;60.09
60654;BME280;46476;53.614;10.048;2022-08-19T01:53:55;100899.59;;;23.55;60.19
60654;BME280;46476;53.614;10.048;2022-08-19T02:57:46;100882.59;;;23.40;61.24
60654;BME280;46476;53.614;10.048;2022-08-19T03:04:03;100894.13;;;23.37;61.26
60654;BME280;46476;53.614;10.048;2022-08-19T03:07:16;100889.03;;;23.34;61.49
60654;BME280;46476;53.614;10.048;2022-08-19T03:10:03;100891.59;;;23.35;61.44
60654;BME280;46476;53.614;10.048;2022-08-19T03:13:01;100893.25;;;23.36;61.10
60654;BME280;46476;53.614;10.048;2022-08-19T03:15:52;100897.97;;;23.36;60.90
60654;BME280;46476;53.614;10.048;2022-08-19T03:18:35;100885.44;;;23.33;61.16
60654;BME280;46476;53.614;10.048;2022-08-19T03:21:00;100890.16;;;23.33;61.15
60654;BME280;46476;53.614;10.048;2022-08-19T03:23:30;100886.28;;;23.34;61.39
60654;BME280;46476;53.614;10.048;2022-08-19T03:35:10;100890.34;;;23.31;61.15
60654;BME280;46476;53.614;10.048;2022-08-19T03:38:10;100893.34;;;23.30;61.40
60654;BME280;46476;53.614;10.048;2022-08-19T03:41:21;100885.31;;;23.28;61.29
60654;BME280;46476;53.614;10.048;2022-08-19T03:44:58;100889.38;;;23.26;61.27
60654;BME280;46476;53.614;10.048;2022-08-19T03:48:40;100898.75;;;23.24;61.47
60654;BME280;46476;53.614;10.048;2022-08-19T03:52:25;100909.78;;;23.24;61.52
60654;BME280;46476;53.614;10.048;2022-08-19T03:59:28;100911.97;;;23.22;61.54
60654;BME280;46476;53.614;10.048;2022-08-19T04:02:55;100923.00;;;23.22;61.65
60654;BME280;46476;53.614;10.048;2022-08-19T04:06:13;100934.88;;;23.23;61.46
60654;BME280;46476;53.614;10.048;2022-08-19T04:09:41;100934.06;;;23.22;61.78
60654;BME280;46476;53.614;10.048;2022-08-19T04:13:17;100936.81;;;23.22;61.47
60654;BME280;46476;53.614;10.048;2022-08-19T04:16:52;100935.13;;;23.21;61.53
60654;BME280;46476;53.614;10.048;2022-08-19T04:20:14;100935.38;;;23.20;61.75
60654;BME280;46476;53.614;10.048;2022-08-19T04:30:59;100951.06;;;23.19;61.89
60654;BME280;46476;53.614;10.048;2022-08-19T04:34:07;100952.78;;;23.20;61.60
60654;BME280;46476;53.614;10.048;2022-08-19T04:36:35;100949.31;;;23.25;61.94
60654;BME280;46476;53.614;10.048;2022-08-19T04:39:05;100948.38;;;23.31;61.64
60654;BME280;46476;53.614;10.048;2022-08-19T04:41:31;100961.66;;;23.41;61.14
60654;BME280;46476;53.614;10.048;2022-08-19T04:44:15;100956.41;;;23.51;61.26
60654;BME280;46476;53.614;10.048;2022-08-19T04:46:44;100949.00;;;23.64;61.08
60654;BME280;46476;53.614;10.048;2022-08-19T04:49:09;100949.53;;;23.72;60.64
60654;BME280;46476;53.614;10.048;2022-08-19T04:51:40;100947.97;;;23.77;60.30
60654;BME280;46476;53.614;10.048;2022-08-19T04:54:07;100959.03;;;23.77;60.24
60654;BME280;46476;53.614;10.048;2022-08-19T04:56:33;100962.66;;;23.77;60.14
60654;BME280;46476;53.614;10.048;2022-08-19T04:58:59;100966.13;;;23.72;60.16
60654;BME280;46476;53.614;10.048;2022-08-19T05:01:28;100953.75;;;23.75;60.20
60654;BME280;46476;53.614;10.048;2022-08-19T05:03:55;100963.13;;;23.74;60.03
60654;BME280;46476;53.614;10.048;2022-08-19T05:06:22;100955.94;;;23.73;60.32
60654;BME280;46476;53.614;10.048;2022-08-19T05:08:48;100965.88;;;23.74;60.07
60654;BME280;46476;53.614;10.048;2022-08-19T05:14:35;100965.28;;;23.72;60.34
60654;BME280;46476;53.614;10.048;2022-08-19T05:17:01;100971.41;;;23.74;60.09
60654;BME280;46476;53.614;10.048;2022-08-19T05:19:27;100974.19;;;23.74;60.07
60654;BME280;46476;53.614;10.048;2022-08-19T05:22:11;100975.03;;;23.75;60.13
60654;BME280;46476;53.614;10.048;2022-08-19T05:24:55;100970.97;;;23.77;60.19
60654;BME280;46476;53.614;10.048;2022-08-19T05:27:20;100975.41;;;23.78;60.33
60654;BME280;46476;53.614;10.048;2022-08-19T05:29:45;100977.31;;;23.78;60.29
60654;BME280;46476;53.614;10.048;2022-08-19T05:32:11;100986.34;;;23.73;60.08
60654;BME280;46476;53.614;10.048;2022-08-19T05:34:37;100981.00;;;23.71;60.00
60654;BME280;46476;53.614;10.048;2022-08-19T05:37:04;100981.00;;;23.71;60.35
60654;BME280;46476;53.614;10.048;2022-08-19T05:39:32;100984.63;;;23.72;60.38
60654;BME280;46476;53.614;10.048;2022-08-19T05:42:00;100983.78;;;23.71;60.30
60654;BME280;46476;53.614;10.048;2022-08-19T05:44:29;100984.53;;;23.79;60.22
60654;BME280;46476;53.614;10.048;2022-08-19T05:47:00;100975.19;;;23.80;59.94
60654;BME280;46476;53.614;10.048;2022-08-19T05:49:27;100969.16;;;23.83;59.80
60654;BME280;46476;53.614;10.048;2022-08-19T05:51:54;100972.56;;;23.85;59.56
60654;BME280;46476;53.614;10.048;2022-08-19T05:54:21;100974.47;;;23.84;59.95
60654;BME280;46476;53.614;10.048;2022-08-19T05:56:49;100964.50;;;23.83;60.04
60654;BME280;46476;53.614;10.048;2022-08-19T05:59:16;100970.03;;;23.83;59.81
60654;BME280;46476;53.614;10.048;2022-08-19T06:01:44;100968.09;;;23.84;59.94
60654;BME280;46476;53.614;10.048;2022-08-19T06:04:10;100972.16;;;23.81;59.99
60654;BME280;46476;53.614;10.048;2022-08-19T06:06:36;100973.72;;;23.77;59.78
60654;BME280;46476;53.614;10.048;2022-08-19T06:09:03;100970.81;;;23.72;59.91
60654;BME280;46476;53.614;10.048;2022-08-19T06:14:02;100965.53;;;23.70;60.27
60654;BME280;46476;53.614;10.048;2022-08-19T06:16:28;100966.34;;;23.71;60.42
60654;BME280;46476;53.614;10.048;2022-08-19T06:18:59;100966.34;;;23.71;60.27
60654;BME280;46476;53.614;10.048;2022-08-19T06:21:26;100968.06;;;23.72;60.20
60654;BME280;46476;53.614;10.048;2022-08-19T06:23:52;100972.50;;;23.73;59.91
60654;BME280;46476;53.614;10.048;2022-08-19T06:26:19;100973.59;;;23.72;60.10
60654;BME280;46476;53.614;10.048;2022-08-19T06:28:46;100977.41;;;23.71;59.85
60654;BME280;46476;53.614;10.048;2022-08-19T06:31:25;100976.66;;;23.64;60.17
60654;BME280;46476;53.614;10.048;2022-08-19T06:33:51;100974.22;;;23.55;60.25
60654;BME280;46476;53.614;10.048;2022-08-19T06:38:42;100973.69;;;23.47;60.43
60654;BME280;46476;53.614;10.048;2022-08-19T06:41:08;100968.88;;;23.42;60.67
60654;BME280;46476;53.614;10.048;2022-08-19T06:43:34;100964.66;;;23.39;60.76
60654;BME280;46476;53.614;10.048;2022-08-19T06:46:10;100962.13;;;23.38;61.09
60654;BME280;46476;53.614;10.048;2022-08-19T06:48:36;100958.97;;;23.34;61.19
60654;BME280;46476;53.614;10.048;2022-08-19T06:51:01;100956.66;;;23.31;61.31
60654;BME280;46476;53.614;10.048;2022-08-19T06:53:30;100957.75;;;23.30;61.04
60654;BME280;46476;53.614;10.048;2022-08-19T06:55:55;100964.34;;;23.29;61.18
60654;BME280;46476;53.614;10.048;2022-08-19T06:58:25;100969.03;;;23.29;61.57
60654;BME280;46476;53.614;10.048;2022-08-19T07:00:51;100973.09;;;23.26;61.22
60654;BME280;46476;53.614;10.048;2022-08-19T07:03:16;100971.44;;;23.25;61.13
60654;BME280;46476;53.614;10.048;2022-08-19T07:05:42;100975.50;;;23.22;61.41
60654;BME280;46476;53.614;10.048;2022-08-19T07:08:08;100976.56;;;23.21;61.41
60654;BME280;46476;53.614;10.048;2022-08-19T07:10:37;100972.09;;;23.20;61.78
60654;BME280;46476;53.614;10.048;2022-08-19T07:13:05;100971.28;;;23.20;61.40
60654;BME280;46476;53.614;10.048;2022-08-19T07:15:30;100970.41;;;23.19;61.65
60654;BME280;46476;53.614;10.048;2022-08-19T07:17:56;100967.41;;;23.21;61.45
60654;BME280;46476;53.614;10.048;2022-08-19T07:20:21;100969.09;;;23.22;61.70
60654;BME280;46476;53.614;10.048;2022-08-19T07:22:46;100972.72;;;23.22;61.34
60654;BME280;46476;53.614;10.048;2022-08-19T07:25:13;100961.88;;;23.21;61.54
60654;BME280;46476;53.614;10.048;2022-08-19T07:27:38;100969.97;;;23.22;61.37
60654;BME280;46476;53.614;10.048;2022-08-19T07:30:04;100970.16;;;23.21;61.46
60654;BME280;46476;53.614;10.048;2022-08-19T07:32:30;100979.31;;;23.21;61.63
60654;BME280;46476;53.614;10.048;2022-08-19T07:34:56;100980.53;;;23.26;61.42
60654;BME280;46476;53.614;10.048;2022-08-19T07:37:21;100981.63;;;23.24;61.39
60654;BME280;46476;53.614;10.048;2022-08-19T07:39:47;100994.59;;;23.24;61.68
60654;BME280;46476;53.614;10.048;2022-08-19T07:42:12;101001.19;;;23.23;61.85
60654;BME280;46476;53.614;10.048;2022-08-19T07:44:38;101010.53;;;23.22;61.53
60654;BME280;46476;53.614;10.048;2022-08-19T07:47:05;101016.69;;;23.24;61.61
60654;BME280;46476;53.614;10.048;2022-08-19T07:49:33;101007.53;;;23.23;61.51
60654;BME280;46476;53.614;10.048;2022-08-19T07:52:03;101004.78;;;23.23;61.41
60654;BME280;46476;53.614;10.048;2022-08-19T07:54:32;101001.19;;;23.23;61.45
60654;BME280;46476;53.614;10.048;2022-08-19T07:57:00;101007.34;;;23.25;61.41
60654;BME280;46476;53.614;10.048;2022-08-19T07:59:26;101013.94;;;23.24;61.88
60654;BME280;46476;53.614;10.048;2022-08-19T08:01:51;101011.59;;;23.21;61.89
60654;BME280;46476;53.614;10.048;2022-08-19T08:04:18;101024.59;;;23.20;61.72
60654;BME280;46476;53.614;10.048;2022-08-19T08:07:03;101026.53;;;23.20;62.04
60654;BME280;46476;53.614;10.048;2022-08-19T08:09:48;101032.88;;;23.20;62.11
60654;BME280;46476;53.614;10.048;2022-08-19T08:12:17;101036.69;;;23.19;61.98
60654;BME280;46476;53.614;10.048;2022-08-19T08:14:52;101042.22;;;23.19;61.99
60654;BME280;46476;53.614;10.048;2022-08-19T08:17:21;101033.34;;;23.17;61.65
60654;BME280;46476;53.614;10.048;2022-08-19T08:19:47;101032.25;;;23.18;61.86
60654;BME280;46476;53.614;10.048;2022-08-19T08:22:17;101029.03;;;23.21;61.82
60654;BME280;46476;53.614;10.048;2022-08-19T08:25:11;101040.34;;;23.20;62.13
60654;BME280;46476;53.614;10.048;2022-08-19T08:27:38;101037.81;;;23.37;62.11
60654;BME280;46476;53.614;10.048;2022-08-19T08:30:08;101052.09;;;23.52;61.85
60654;BME280;46476;53.614;10.048;2022-08-19T08:32:39;101045.56;;;23.65;61.39
60654;BME280;46476;53.614;10.048;2022-08-19T08:35:06;101050.38;;;23.70;61.56
60654;BME280;46476;53.614;10.048;2022-08-19T08:37:53;101046.59;;;23.83;61.38
60654;BME280;46476;53.614;10.048;2022-08-19T08:40:50;101043.31;;;23.93;60.99
60654;BME280;46476;53.614;10.048;2022-08-19T08:43:27;101043.69;;;23.96;60.52
60654;BME280;46476;53.614;10.048;2022-08-19T08:46:06;101053.91;;;23.96;60.76
60654;BME280;46476;53.614;10.048;2022-08-19T08:51:29;101048.50;;;24.01;60.66
60654;BME280;46476;53.614;10.048;2022-08-19T08:53:58;101047.44;;;24.02;60.29
60654;BME280;46476;53.614;10.048;2022-08-19T08:56:24;101054.53;;;23.98;60.31
60654;BME280;46476;53.614;10.048;2022-08-19T08:59:01;101049.59;;;24.00;60.42
60654;BME280;46476;53.614;10.048;2022-08-19T09:01:28;101050.44;;;24.00;60.28
60654;BME280;46476;53.614;10.048;2022-08-19T09:03:54;101041.91;;;24.02;60.27
60654;BME280;46476;53.614;10.048;2022-08-19T09:06:40;101051.41;;;24.06;60.14
60654;BME280;46476;53.614;10.048;2022-08-19T09:09:30;101050.47;;;24.12;60.21
60654;BME280;46476;53.614;10.048;2022-08-19T09:14:58;101041.91;;;24.02;60.15
60654;BME280;46476;53.614;10.048;2022-08-19T09:17:30;101045.50;;;24.02;60.17
60654;BME280;46476;53.614;10.048;2022-08-19T09:20:06;101059.94;;;24.04;60.50
60654;BME280;46476;53.614;10.048;2022-08-19T09:22:34;101052.25;;;24.06;60.34
60654;BME280;46476;53.614;10.048;2022-08-19T09:25:00;101053.50;;;24.11;60.06
60654;BME280;46476;53.614;10.048;2022-08-19T09:27:27;101059.63;;;24.13;60.04
60654;BME280;46476;53.614;10.048;2022-08-19T09:29:53;101059.16;;;24.16;60.10
60654;BME280;46476;53.614;10.048;2022-08-19T09:32:20;101058.16;;;24.10;60.39
60654;BME280;46476;53.614;10.048;2022-08-19T09:34:45;101051.56;;;24.11;60.13
60654;BME280;46476;53.614;10.048;2022-08-19T09:37:10;101053.84;;;24.14;60.11
60654;BME280;46476;53.614;10.048;2022-08-19T09:39:37;101042.19;;;24.12;60.48
60654;BME280;46476;53.614;10.048;2022-08-19T09:42:03;101049.63;;;24.12;59.98
60654;BME280;46476;53.614;10.048;2022-08-19T09:44:29;101051.56;;;24.11;60.12
60654;BME280;46476;53.614;10.048;2022-08-19T09:46:55;101042.44;;;24.11;60.37
60654;BME280;46476;53.614;10.048;2022-08-19T09:49:21;101049.28;;;24.08;59.88
60654;BME280;46476;53.614;10.048;2022-08-19T09:51:50;101045.25;;;24.04;60.08
60654;BME280;46476;53.614;10.048;2022-08-19T09:54:16;101045.75;;;24.01;60.33
60654;BME280;46476;53.614;10.048;2022-08-19T09:56:41;101052.09;;;24.01;60.05
60654;BME280;46476;53.614;10.048;2022-08-19T09:59:06;101047.88;;;23.99;60.08
60654;BME280;46476;53.614;10.048;2022-08-19T10:01:32;101049.34;;;24.01;60.21
60654;BME280;46476;53.614;10.048;2022-08-19T10:03:59;101055.50;;;24.03;59.98
60654;BME280;46476;53.614;10.048;2022-08-19T10:06:29;101044.44;;;24.03;59.88
60654;BME280;46476;53.614;10.048;2022-08-19T10:08:56;101054.19;;;24.06;60.21
60654;BME280;46476;53.614;10.048;2022-08-19T10:11:22;101048.66;;;24.06;60.13
60654;BME280;46476;53.614;10.048;2022-08-19T10:13:48;101049.13;;;24.03;60.17
60654;BME280;46476;53.614;10.048;2022-08-19T10:16:17;101049.13;;;24.03;60.22
60654;BME280;46476;53.614;10.048;2022-08-19T10:18:44;101055.25;;;24.05;60.09
60654;BME280;46476;53.614;10.048;2022-08-19T10:21:19;101059.34;;;24.02;60.11
60654;BME280;46476;53.614;10.048;2022-08-19T10:23:48;101057.63;;;24.01;60.32
60654;BME280;46476;53.614;10.048;2022-08-19T10:26:20;101052.72;;;24.03;60.53
60654;BME280;46476;53.614;10.048;2022-08-19T10:28:47;101057.44;;;24.03;60.36
60654;BME280;46476;53.614;10.048;2022-08-19T10:31:18;101053.78;;;24.02;60.81
60654;BME280;46476;53.614;10.048;2022-08-19T10:33:45;101049.28;;;24.08;60.74
60654;BME280;46476;53.614;10.048;2022-08-19T10:36:14;101056.59;;;24.14;60.53
60654;BME280;46476;53.614;10.048;2022-08-19T10:38:40;101055.09;;;24.18;60.24
60654;BME280;46476;53.614;10.048;2022-08-19T10:41:23;101041.84;;;24.20;60.38
60654;BME280;46476;53.614;10.048;2022-08-19T10:44:11;101053.03;;;24.26;60.57
60654;BME280;46476;53.614;10.048;2022-08-19T10:46:39;101049.69;;;24.24;59.95
60654;BME280;46476;53.614;10.048;2022-08-19T10:49:12;101044.59;;;24.20;60.03
60654;BME280;46476;53.614;10.048;2022-08-19T10:51:42;101050.88;;;24.16;60.44
60654;BME280;46476;53.614;10.048;2022-08-19T10:54:30;101045.09;;;24.17;60.28
60654;BME280;46476;53.614;10.048;2022-08-19T10:57:17;101042.78;;;24.14;60.36
60654;BME280;46476;53.614;10.048;2022-08-19T10:59:44;101047.47;;;24.14;60.35
60654;BME280;46476;53.614;10.048;2022-08-19T11:02:11;101048.78;;;24.11;60.09
60654;BME280;46476;53.614;10.048;2022-08-19T11:04:39;101048.66;;;24.06;60.34
60654;BME280;46476;53.614;10.048;2022-08-19T11:07:06;101042.88;;;24.08;60.59
60654;BME280;46476;53.614;10.048;2022-08-19T11:09:53;101038.66;;;24.05;60.75
60654;BME280;46476;53.614;10.048;2022-08-19T11:12:55;101044.19;;;24.05;60.59
60654;BME280;46476;53.614;10.048;2022-08-19T11:16:25;101046.97;;;24.05;60.46
60654;BME280;46476;53.614;10.048;2022-08-19T11:19:39;101044.66;;;24.02;60.73
60654;BME280;46476;53.614;10.048;2022-08-19T11:22:38;101052.25;;;24.06;60.33
60654;BME280;46476;53.614;10.048;2022-08-19T11:25:27;101039.53;;;24.05;60.47
60654;BME280;46476;53.614;10.048;2022-08-19T11:28:06;101043.94;;;24.06;60.45
60654;BME280;46476;53.614;10.048;2022-08-19T11:31:00;101052.63;;;24.10;60.75
60654;BME280;46476;53.614;10.048;2022-08-19T11:34:19;101050.13;;;24.20;60.62
60654;BME280;46476;53.614;10.048;2022-08-19T11:36:48;101046.44;;;24.27;60.33
60654;BME280;46476;53.614;10.048;2022-08-19T11:39:48;101041.88;;;24.32;60.38
60654;BME280;46476;53.614;10.048;2022-08-19T11:42:14;101040.34;;;24.36;59.90
60654;BME280;46476;53.614;10.048;2022-08-19T11:44:58;101040.25;;;24.43;59.83
60654;BME280;46476;53.614;10.048;2022-08-19T11:47:46;101033.84;;;24.43;59.99
60654;BME280;46476;53.614;10.048;2022-08-19T11:50:16;101037.81;;;24.47;59.90
60654;BME280;46476;53.614;10.048;2022-08-19T11:52:49;101026.16;;;24.45;59.80
60654;BME280;46476;53.614;10.048;2022-08-19T11:55:39;101031.78;;;24.38;60.04
60654;BME280;46476;53.614;10.048;2022-08-19T11:58:22;101027.72;;;24.41;59.89
60654;BME280;46476;53.614;10.048;2022-08-19T12:01:16;101032.25;;;24.35;59.50
60654;BME280;46476;53.614;10.048;2022-08-19T12:03:48;101039.09;;;24.32;60.09
60654;BME280;46476;53.614;10.048;2022-08-19T12:06:27;101032.25;;;24.35;60.23
60654;BME280;46476;53.614;10.048;2022-08-19T12:09:04;101036.03;;;24.41;59.89
60654;BME280;46476;53.614;10.048;2022-08-19T12:12:03;101036.75;;;24.48;59.99
60654;BME280;46476;53.614;10.048;2022-08-19T12:14:32;101044.59;;;24.51;59.86
60654;BME280;46476;53.614;10.048;2022-08-19T12:17:00;101039.63;;;24.53;59.80
60654;BME280;46476;53.614;10.048;2022-08-19T12:19:27;101039.41;;;24.54;59.56
60654;BME280;46476;53.614;10.048;2022-08-19T12:22:02;101035.19;;;24.52;60.16
60654;BME280;46476;53.614;10.048;2022-08-19T12:24:37;101037.94;;;24.52;60.05
60654;BME280;46476;53.614;10.048;2022-08-19T12:27:54;101042.66;;;24.51;59.46
60654;BME280;46476;53.614;10.048;2022-08-19T12:30:59;101036.28;;;24.51;59.90
60654;BME280;46476;53.614;10.048;2022-08-19T12:33:29;101038.94;;;24.58;59.95
60654;BME280;46476;53.614;10.048;2022-08-19T12:36:03;101035.25;;;24.64;59.72
60654;BME280;46476;53.614;10.048;2022-08-19T12:38:29;101027.28;;;24.67;59.84
60654;BME280;46476;53.614;10.048;2022-08-19T12:40:54;101033.94;;;24.66;59.40
60654;BME280;46476;53.614;10.048;2022-08-19T12:43:20;101025.00;;;24.64;59.70
60654;BME280;46476;53.614;10.048;2022-08-19T12:45:46;101023.31;;;24.63;59.28
60654;BME280;46476;53.614;10.048;2022-08-19T12:48:12;101019.69;;;24.63;59.45
60654;BME280;46476;53.614;10.048;2022-08-19T12:50:42;101025.13;;;24.69;59.44
60654;BME280;46476;53.614;10.048;2022-08-19T12:53:08;101019.84;;;24.68;59.31
60654;BME280;46476;53.614;10.048;2022-08-19T12:55:33;101013.81;;;24.71;59.40
60654;BME280;46476;53.614;10.048;2022-08-19T12:57:59;101030.56;;;24.76;59.60
60654;BME280;46476;53.614;10.048;2022-08-19T13:00:27;101019.84;;;24.80;59.40
60654;BME280;46476;53.614;10.048;2022-08-19T13:02:52;101022.38;;;24.81;59.24
60654;BME280;46476;53.614;10.048;2022-08-19T13:05:21;101022.50;;;24.86;59.63
60654;BME280;46476;53.614;10.048;2022-08-19T13:07:54;101019.59;;;24.93;59.01
60654;BME280;46476;53.614;10.048;2022-08-19T13:10:22;101020.22;;;24.95;58.98
60654;BME280;46476;53.614;10.048;2022-08-19T13:12:50;101022.72;;;24.97;59.12
60654;BME280;46476;53.614;10.048;2022-08-19T13:15:17;101019.25;;;25.01;58.96
60654;BME280;46476;53.614;10.048;2022-08-19T13:17:46;101016.47;;;25.01;58.92
60654;BME280;46476;53.614;10.048;2022-08-19T13:20:13;101022.25;;;25.00;58.47
60654;BME280;46476;53.614;10.048;2022-08-19T13:22:39;101009.50;;;24.99;58.53
60654;BME280;46476;53.614;10.048;2022-08-19T13:25:05;101011.66;;;24.97;58.43
60654;BME280;46476;53.614;10.048;2022-08-19T13:27:31;101005.75;;;24.93;58.33
60654;BME280;46476;53.614;10.048;2022-08-19T13:29:57;101001.91;;;24.94;58.71
60654;BME280;46476;53.614;10.048;2022-08-19T13:32:41;101007.19;;;24.96;58.67
60654;BME280;46476;53.614;10.048;2022-08-19T13:35:25;101012.47;;;24.97;58.99
60654;BME280;46476;53.614;10.048;2022-08-19T13:37:50;101007.81;;;24.98;58.61
60654;BME280;46476;53.614;10.048;2022-08-19T13:40:18;101012.28;;;24.99;58.59
60654;BME280;46476;53.614;10.048;2022-08-19T13:42:46;100997.31;;;25.00;58.75
60654;BME280;46476;53.614;10.048;2022-08-19T13:45:14;100991.56;;;25.01;58.48
60654;BME280;46476;53.614;10.048;2022-08-19T13:47:40;100992.63;;;25.00;58.41
60654;BME280;46476;53.614;10.048;2022-08-19T13:50:14;100990.09;;;24.99;58.87
60654;BME280;46476;53.614;10.048;2022-08-19T13:52:41;100991.56;;;25.01;58.39
60654;BME280;46476;53.614;10.048;2022-08-19T13:55:08;100994.53;;;25.00;58.56
60654;BME280;46476;53.614;10.048;2022-08-19T13:57:34;100992.63;;;25.00;58.47
60654;BME280;46476;53.614;10.048;2022-08-19T14:00:02;101000.56;;;24.97;58.60
60654;BME280;46476;53.614;10.048;2022-08-19T14:02:29;101003.59;;;24.95;58.52
60654;BME280;46476;53.614;10.048;2022-08-19T14:04:54;100994.41;;;24.95;58.52
60654;BME280;46476;53.614;10.048;2022-08-19T14:07:19;100998.31;;;24.94;58.61
60654;BME280;46476;53.614;10.048;2022-08-19T14:09:45;101009.97;;;24.96;58.33
60654;BME280;46476;53.614;10.048;2022-08-19T14:12:10;101002.72;;;24.95;58.26
60654;BME280;46476;53.614;10.048;2022-08-19T14:14:37;101000.22;;;24.93;57.98
60654;BME280;46476;53.614;10.048;2022-08-19T14:17:06;100996.00;;;24.91;58.27
60654;BME280;46476;53.614;10.048;2022-08-19T14:19:32;100994.31;;;24.90;58.36
60654;BME280;46476;53.614;10.048;2022-08-19T14:21:57;100987.69;;;24.91;58.09
60654;BME280;46476;53.614;10.048;2022-08-19T14:24:22;100987.94;;;24.89;58.35
60654;BME280;46476;53.614;10.048;2022-08-19T14:26:48;100992.16;;;24.92;58.34
60654;BME280;46476;53.614;10.048;2022-08-19T14:29:14;100993.34;;;24.96;58.33
60654;BME280;46476;53.614;10.048;2022-08-19T14:31:39;100997.31;;;25.00;57.69
60654;BME280;46476;53.614;10.048;2022-08-19T14:34:07;100992.50;;;24.95;58.00
60654;BME280;46476;53.614;10.048;2022-08-19T14:36:32;100989.13;;;24.93;58.19
60654;BME280;46476;53.614;10.048;2022-08-19T14:38:59;100991.06;;;24.93;58.34
60654;BME280;46476;53.614;10.048;2022-08-19T14:41:26;100992.25;;;24.97;58.16
60654;BME280;46476;53.614;10.048;2022-08-19T14:43:52;100995.66;;;24.99;57.98
60654;BME280;46476;53.614;10.048;2022-08-19T14:46:21;100996.22;;;25.01;57.76
60654;BME280;46476;53.614;10.048;2022-08-19T14:48:47;100996.22;;;25.01;58.20
60654;BME280;46476;53.614;10.048;2022-08-19T14:51:13;101002.38;;;25.03;58.19
60654;BME280;46476;53.614;10.048;2022-08-19T14:53:40;100997.91;;;25.02;58.27
60654;BME280;46476;53.614;10.048;2022-08-19T14:56:10;101002.38;;;25.03;58.14
60654;BME280;46476;53.614;10.048;2022-08-19T14:58:36;101000.44;;;25.03;58.01
60654;BME280;46476;53.614;10.048;2022-08-19T15:01:02;101002.13;;;25.04;57.78
60654;BME280;46476;53.614;10.048;2022-08-19T15:03:29;101001.78;;;25.01;57.50
60654;BME280;46476;53.614;10.048;2022-08-19T15:05:54;101008.38;;;25.00;57.62
60654;BME280;46476;53.614;10.048;2022-08-19T15:08:23;101008.38;;;25.00;57.52
60654;BME280;46476;53.614;10.048;2022-08-19T15:10:51;101016.94;;;24.98;57.37
60654;BME280;46476;53.614;10.048;2022-08-19T15:13:16;101011.66;;;24.97;57.33
60654;BME280;46476;53.614;10.048;2022-08-19T15:15:41;101012.28;;;24.99;57.43